createdAt,value
2023-03-06T00:02:03.620Z,100835.59
2023-03-06T00:04:25.334Z,100840.03
2023-03-06T00:06:46.934Z,100831.34
2023-03-06T00:09:09.803Z,100825.34
2023-03-06T00:11:31.434Z,100822.63
2023-03-06T00:13:53.164Z,100828.09
2023-03-06T00:16:15.007Z,100823.97
2023-03-06T00:18:36.577Z,100823.16
2023-03-06T00:20:58.227Z,100821.03
2023-03-06T00:23:19.890Z,100816.97
2023-03-06T00:25:46.043Z,100819.44
2023-03-06T00:28:07.666Z,100820.91
2023-03-06T00:30:29.482Z,100811.09
2023-03-06T00:32:53.438Z,100811.91
2023-03-06T00:35:16.520Z,100807.84
2023-03-06T00:37:39.746Z,100805.13
2023-03-06T00:40:01.685Z,100804.88
2023-03-06T00:42:23.288Z,100798.63
2023-03-06T00:44:47.248Z,100801.13
2023-03-06T00:47:08.982Z,100792.44
2023-03-06T00:49:30.582Z,100786.97
2023-03-06T00:51:52.350Z,100795.44
2023-03-06T00:54:13.944Z,100784.31
2023-03-06T00:56:35.567Z,100783.25
2023-03-06T00:58:57.224Z,100776.75
2023-03-06T01:01:20.373Z,100771.91
2023-03-06T01:03:41.994Z,100774.09
2023-03-06T01:06:03.872Z,100771.44
2023-03-06T01:08:25.548Z,100768.19
2023-03-06T01:10:50.892Z,100775.28
2023-03-06T01:13:12.504Z,100763.25
2023-03-06T01:15:34.264Z,100763.84
2023-03-06T01:17:55.937Z,100772.53
2023-03-06T01:20:18.415Z,100770.09
2023-03-06T01:22:40.053Z,100760.59
2023-03-06T01:25:01.773Z,100772.28
2023-03-06T01:27:23.373Z,100774.22
2023-03-06T01:29:44.985Z,100767.16
2023-03-06T01:32:07.136Z,100760.88
2023-03-06T01:34:28.791Z,100753.81
2023-03-06T01:36:50.479Z,100755.13
2023-03-06T01:39:12.221Z,100754.59
2023-03-06T01:41:33.911Z,100753.81
2023-03-06T01:43:56.241Z,100757.13
2023-03-06T01:46:28.746Z,100753.56
2023-03-06T01:49:05.545Z,100747.88
2023-03-06T01:51:35.439Z,100746.84
2023-03-06T01:54:05.155Z,100734.59
2023-03-06T01:56:27.298Z,100740.63
2023-03-06T01:58:49.693Z,100728.41
2023-03-06T02:01:14.575Z,100728.41
2023-03-06T02:03:36.630Z,100724.94
2023-03-06T02:06:00.242Z,100726.59
2023-03-06T02:08:24.027Z,100722.81
2023-03-06T02:11:10.549Z,100709.19
2023-03-06T02:13:32.488Z,100711.41
2023-03-06T02:15:54.259Z,100717.16
2023-03-06T02:18:15.918Z,100702.22
2023-03-06T02:20:48.615Z,100704.41
2023-03-06T02:23:34.033Z,100697.63
2023-03-06T02:25:57.582Z,100698.25
2023-03-06T02:28:23.059Z,100700.72
2023-03-06T02:30:47.327Z,100693.66
2023-03-06T02:33:19.962Z,100696.44
2023-03-06T02:35:51.578Z,100690.47
2023-03-06T02:38:20.207Z,100691.31
2023-03-06T02:40:46.883Z,100691.84
2023-03-06T02:43:10.337Z,100689.13
2023-03-06T02:45:42.561Z,100693.19
2023-03-06T02:48:05.076Z,100688.56
2023-03-06T02:50:26.794Z,100693.47
2023-03-06T02:52:48.476Z,100694.28
2023-03-06T02:55:10.382Z,100696.19
2023-03-06T02:57:32.124Z,100694.28
2023-03-06T02:59:56.005Z,100688.81
2023-03-06T03:02:17.957Z,100689.69
2023-03-06T03:04:39.710Z,100692.41
2023-03-06T03:07:01.867Z,100683.75
2023-03-06T03:09:23.630Z,100679.91
2023-03-06T03:11:45.221Z,100670.69
2023-03-06T03:14:07.048Z,100670.41
2023-03-06T03:16:28.759Z,100673.41
2023-03-06T03:18:53.231Z,100667.22
2023-03-06T03:21:17.983Z,100659.84
2023-03-06T03:23:41.691Z,100657.94
2023-03-06T03:26:10.241Z,100656.03
2023-03-06T03:28:35.006Z,100652.28
2023-03-06T03:31:01.898Z,100655.78
2023-03-06T03:33:23.807Z,100647.63
2023-03-06T03:35:45.456Z,100646.81
2023-03-06T03:38:07.202Z,100635.66
2023-03-06T03:40:29.344Z,100637.03
2023-03-06T03:42:53.148Z,100625.63
2023-03-06T03:45:15.479Z,100632.47
2023-03-06T03:47:37.752Z,100630.31
2023-03-06T03:50:00.696Z,100619.19
2023-03-06T03:52:22.412Z,100616.75
2023-03-06T03:54:44.082Z,100619.78
2023-03-06T03:57:06.005Z,100611.88
2023-03-06T03:59:31.072Z,100610.78
2023-03-06T04:02:04.885Z,100617.59
2023-03-06T04:04:31.320Z,100615.72
2023-03-06T04:06:52.973Z,100616.00
2023-03-06T04:09:14.969Z,100612.75
2023-03-06T04:11:37.069Z,100603.25
2023-03-06T04:13:58.752Z,100608.41
2023-03-06T04:16:20.831Z,100604.84
2023-03-06T04:18:43.958Z,100600.53
2023-03-06T04:21:06.028Z,100601.63
2023-03-06T04:23:28.438Z,100598.91
2023-03-06T04:25:51.452Z,100594.34
2023-03-06T04:28:14.459Z,100596.25
2023-03-06T04:30:36.341Z,100588.38
2023-03-06T04:32:58.514Z,100585.91
2023-03-06T04:35:20.441Z,100587.56
2023-03-06T04:37:50.662Z,100583.50
2023-03-06T04:40:20.220Z,100589.75
2023-03-06T04:42:41.802Z,100593.53
2023-03-06T04:45:03.675Z,100590.31
2023-03-06T04:47:25.345Z,100586.22
2023-03-06T04:49:46.951Z,100578.34
2023-03-06T04:52:08.691Z,100585.69
2023-03-06T04:54:30.676Z,100578.91
2023-03-06T04:56:52.209Z,100578.91
2023-03-06T04:59:13.826Z,100576.19
2023-03-06T05:01:35.539Z,100580.25
2023-03-06T05:03:57.150Z,100579.44
2023-03-06T05:06:18.756Z,100576.69
2023-03-06T05:08:40.380Z,100573.97
2023-03-06T05:11:03.560Z,100572.84
2023-03-06T05:13:26.645Z,100569.84
2023-03-06T05:15:48.251Z,100566.59
2023-03-06T05:18:10.011Z,100566.59
2023-03-06T05:20:32.145Z,100566.34
2023-03-06T05:22:53.726Z,100557.91
2023-03-06T05:25:15.468Z,100551.09
2023-03-06T05:27:38.175Z,100551.34
2023-03-06T05:29:59.838Z,100559.50
2023-03-06T05:32:22.929Z,100556.25
2023-03-06T05:34:44.588Z,100566.84
2023-03-06T05:37:06.287Z,100559.78
2023-03-06T05:39:30.198Z,100557.59
2023-03-06T05:41:51.771Z,100555.09
2023-03-06T05:44:13.370Z,100543.13
2023-03-06T05:46:35.042Z,100546.66
2023-03-06T05:48:57.853Z,100538.78
2023-03-06T05:51:19.506Z,100535.78
2023-03-06T05:53:41.261Z,100533.28
2023-03-06T05:56:08.753Z,100540.06
2023-03-06T05:58:34.419Z,100532.13
2023-03-06T06:00:56.404Z,100531.88
2023-03-06T06:03:19.296Z,100532.94
2023-03-06T06:05:40.912Z,100537.31
2023-03-06T06:08:02.550Z,100540.53
2023-03-06T06:10:24.197Z,100535.91
2023-03-06T06:12:45.841Z,100536.41
2023-03-06T06:15:08.102Z,100543.50
2023-03-06T06:17:31.371Z,100545.09
2023-03-06T06:19:52.984Z,100544.34
2023-03-06T06:22:14.571Z,100536.19
2023-03-06T06:24:36.218Z,100540.78
2023-03-06T06:27:01.472Z,100541.78
2023-03-06T06:29:26.921Z,100538.25
2023-03-06T06:31:49.018Z,100536.88
2023-03-06T06:34:12.759Z,100533.28
2023-03-06T06:36:34.518Z,100536.78
2023-03-06T06:38:56.362Z,100526.41
2023-03-06T06:44:00.447Z,100528.03
2023-03-06T06:47:02.647Z,100526.13
2023-03-06T06:49:04.221Z,100523.13
2023-03-06T06:51:25.917Z,100526.91
2023-03-06T06:53:47.582Z,100523.41
2023-03-06T06:56:09.140Z,100534.50
2023-03-06T06:58:30.729Z,100524.66
2023-03-06T07:00:53.011Z,100527.63
2023-03-06T07:03:15.034Z,100534.69
2023-03-06T07:05:36.602Z,100549.69
2023-03-06T07:07:59.034Z,100560.50
2023-03-06T07:10:21.210Z,100556.09
2023-03-06T07:12:43.062Z,100555.78
2023-03-06T07:15:08.041Z,100553.66
2023-03-06T07:17:29.724Z,100556.91
2023-03-06T07:19:51.356Z,100556.63
2023-03-06T07:22:14.097Z,100553.06
2023-03-06T07:24:35.756Z,100559.34
2023-03-06T07:26:57.761Z,100557.97
2023-03-06T07:29:20.245Z,100551.91
2023-03-06T07:31:42.341Z,100552.44
2023-03-06T07:34:05.092Z,100552.13
2023-03-06T07:36:26.916Z,100555.09
2023-03-06T07:38:48.912Z,100550.69
2023-03-06T07:41:13.814Z,100556.88
2023-03-06T07:43:35.482Z,100550.84
2023-03-06T07:46:00.585Z,100540.19
2023-03-06T07:48:22.298Z,100540.41
2023-03-06T07:50:43.994Z,100544.97
2023-03-06T07:53:05.674Z,100550.34
2023-03-06T07:55:27.293Z,100546.22
2023-03-06T07:57:51.635Z,100547.63
2023-03-06T08:00:15.803Z,100541.00
2023-03-06T08:02:37.448Z,100549.91
2023-03-06T08:04:59.128Z,100550.88
2023-03-06T08:07:22.165Z,100558.88
2023-03-06T08:09:43.851Z,100556.88
2023-03-06T08:12:05.897Z,100564.97
2023-03-06T08:14:27.870Z,100557.22
2023-03-06T08:16:51.141Z,100554.41
2023-03-06T08:19:12.787Z,100552.19
2023-03-06T08:21:34.616Z,100555.66
2023-03-06T08:23:56.670Z,100557.47
2023-03-06T08:26:23.054Z,100554.19
2023-03-06T08:28:45.443Z,100555.88
2023-03-06T08:31:09.407Z,100553.94
2023-03-06T08:33:30.972Z,100556.91
2023-03-06T08:35:52.785Z,100556.81
2023-03-06T08:38:15.028Z,100563.00
2023-03-06T08:40:36.631Z,100559.28
2023-03-06T08:42:58.280Z,100564.88
2023-03-06T08:45:19.906Z,100555.16
2023-03-06T08:47:41.490Z,100562.13
2023-03-06T08:50:03.930Z,100566.41
2023-03-06T08:52:25.647Z,100560.75
2023-03-06T08:54:47.292Z,100554.97
2023-03-06T08:57:09.211Z,100558.84
2023-03-06T08:59:31.663Z,100565.97
2023-03-06T09:01:53.359Z,100558.59
2023-03-06T09:04:15.009Z,100561.41
2023-03-06T09:06:41.444Z,100544.78
2023-03-06T09:09:04.712Z,100532.81
2023-03-06T09:11:28.184Z,100542.53
2023-03-06T09:13:50.454Z,100542.19
2023-03-06T09:16:12.501Z,100538.66
2023-03-06T09:18:34.278Z,100539.47
2023-03-06T09:20:56.324Z,100544.63
2023-03-06T09:23:18.008Z,100545.13
2023-03-06T09:25:39.606Z,100552.13
2023-03-06T09:28:10.895Z,100545.66
2023-03-06T09:30:33.503Z,100550.72
2023-03-06T09:32:55.153Z,100547.88
2023-03-06T09:35:18.726Z,100552.94
2023-03-06T09:37:41.920Z,100547.63
2023-03-06T09:40:06.392Z,100554.50
2023-03-06T09:42:29.175Z,100556.31
2023-03-06T09:45:02.245Z,100543.72
2023-03-06T09:47:51.870Z,100548.59
2023-03-06T09:50:33.890Z,100550.00
2023-03-06T09:53:34.109Z,100554.50
2023-03-06T09:56:05.954Z,100552.41
2023-03-06T09:58:30.834Z,100550.91
2023-03-06T10:01:03.447Z,100554.91
2023-03-06T10:03:34.236Z,100551.03
2023-03-06T10:06:04.061Z,100550.63
2023-03-06T10:09:07.186Z,100542.66
2023-03-06T10:11:52.676Z,100547.88
2023-03-06T10:14:20.343Z,100551.59
2023-03-06T10:16:42.471Z,100551.97
2023-03-06T10:19:17.256Z,100557.44
2023-03-06T10:21:59.952Z,100556.44
2023-03-06T10:24:42.416Z,100554.97
2023-03-06T10:27:40.487Z,100551.66
2023-03-06T10:30:51.556Z,100543.69
2023-03-06T10:33:46.997Z,100548.13
2023-03-06T10:36:15.987Z,100541.00
2023-03-06T10:38:38.308Z,100545.53
2023-03-06T10:41:12.266Z,100553.69
2023-03-06T10:43:36.659Z,100550.63
2023-03-06T10:45:58.402Z,100552.09
2023-03-06T10:48:27.447Z,100549.38
2023-03-06T10:50:49.553Z,100541.22
2023-03-06T10:53:29.185Z,100547.72
2023-03-06T10:55:58.876Z,100542.72
2023-03-06T10:58:32.800Z,100545.63
2023-03-06T11:01:22.381Z,100549.97
2023-03-06T11:03:45.514Z,100547.19
2023-03-06T11:06:13.490Z,100558.00
2023-03-06T11:08:36.229Z,100551.53
2023-03-06T11:11:05.549Z,100550.06
2023-03-06T11:13:32.022Z,100545.75
2023-03-06T11:16:07.284Z,100536.13
2023-03-06T11:18:41.287Z,100542.75
2023-03-06T11:21:23.104Z,100534.41
2023-03-06T11:23:47.342Z,100536.97
2023-03-06T11:26:20.038Z,100536.66
2023-03-06T11:28:50.916Z,100532.28
2023-03-06T11:31:22.465Z,100530.69
2023-03-06T11:33:59.247Z,100531.66
2023-03-06T11:37:01.516Z,100532.78
2023-03-06T11:39:43.765Z,100524.38
2023-03-06T11:42:10.331Z,100531.81
2023-03-06T11:45:22.943Z,100529.22
2023-03-06T11:47:57.744Z,100523.41
2023-03-06T11:50:41.331Z,100528.41
2023-03-06T11:53:07.336Z,100515.22
2023-03-06T11:55:44.777Z,100520.38
2023-03-06T11:58:39.662Z,100514.72
2023-03-06T12:01:13.010Z,100514.22
2023-03-06T12:04:17.903Z,100507.13
2023-03-06T12:06:45.454Z,100503.09
2023-03-06T12:09:13.130Z,100497.91
2023-03-06T12:11:58.988Z,100501.31
2023-03-06T12:14:52.583Z,100496.78
2023-03-06T12:17:35.534Z,100495.13
2023-03-06T12:20:39.692Z,100483.66
2023-03-06T12:23:29.919Z,100486.03
2023-03-06T12:26:20.672Z,100484.84
2023-03-06T12:29:11.546Z,100481.56
2023-03-06T12:31:59.300Z,100472.47
2023-03-06T12:34:52.380Z,100473.78
2023-03-06T12:38:14.746Z,100467.88
2023-03-06T12:41:31.742Z,100466.88
2023-03-06T12:44:40.494Z,100466.50
2023-03-06T12:47:09.220Z,100456.78
2023-03-06T12:49:38.666Z,100446.25
2023-03-06T12:52:04.965Z,100451.28
2023-03-06T12:54:33.488Z,100448.72
2023-03-06T12:56:59.797Z,100445.84
2023-03-06T12:59:47.222Z,100443.19
2023-03-06T13:02:54.765Z,100442.22
2023-03-06T13:06:01.408Z,100435.66
2023-03-06T13:09:07.238Z,100437.25
2023-03-06T13:12:06.075Z,100431.94
2023-03-06T13:14:34.267Z,100425.69
2023-03-06T13:17:22.998Z,100425.97
2023-03-06T13:19:44.664Z,100423.72
2023-03-06T13:22:29.331Z,100421.16
2023-03-06T13:25:16.714Z,100420.75
2023-03-06T13:27:53.618Z,100423.22
2023-03-06T13:30:28.429Z,100407.84
2023-03-06T13:32:55.374Z,100412.25
2023-03-06T13:35:32.330Z,100409.88
2023-03-06T13:37:54.545Z,100404.22
2023-03-06T13:40:33.609Z,100402.47
2023-03-06T13:43:21.394Z,100411.69
2023-03-06T13:45:47.081Z,100398.94
2023-03-06T13:48:44.637Z,100393.63
2023-03-06T13:51:28.042Z,100395.84
2023-03-06T13:54:20.631Z,100407.28
2023-03-06T13:57:17.344Z,100401.00
2023-03-06T14:00:18.999Z,100399.44
2023-03-06T14:03:27.643Z,100387.03
2023-03-06T14:05:51.985Z,100384.47
2023-03-06T14:08:24.680Z,100385.94
2023-03-06T14:10:59.219Z,100388.53
2023-03-06T14:13:45.341Z,100377.22
2023-03-06T14:16:22.976Z,100382.25
2023-03-06T14:18:49.576Z,100377.41
2023-03-06T14:21:14.484Z,100378.75
2023-03-06T14:23:42.400Z,100376.66
2023-03-06T14:26:23.926Z,100372.13
2023-03-06T14:29:01.213Z,100368.28
2023-03-06T14:31:27.712Z,100370.72
2023-03-06T14:34:19.279Z,100368.13
2023-03-06T14:36:48.563Z,100363.59
2023-03-06T14:39:33.969Z,100358.09
2023-03-06T14:42:06.046Z,100351.94
2023-03-06T14:44:27.800Z,100360.00
2023-03-06T14:46:56.468Z,100348.66
2023-03-06T14:49:21.075Z,100356.06
2023-03-06T14:51:47.734Z,100343.31
2023-03-06T14:54:27.937Z,100343.09
2023-03-06T14:56:58.669Z,100342.44
2023-03-06T14:59:30.465Z,100340.06
2023-03-06T15:02:02.697Z,100330.75
2023-03-06T15:04:39.362Z,100326.53
2023-03-06T15:07:01.472Z,100328.00
2023-03-06T15:09:36.703Z,100324.47
2023-03-06T15:12:01.267Z,100331.63
2023-03-06T15:14:59.547Z,100326.63
2023-03-06T15:17:29.852Z,100318.44
2023-03-06T15:19:58.722Z,100327.19
2023-03-06T15:22:44.100Z,100323.78
2023-03-06T15:25:20.108Z,100323.78
2023-03-06T15:27:50.195Z,100317.34
2023-03-06T15:30:36.879Z,100315.13
2023-03-06T15:33:19.711Z,100317.88
2023-03-06T15:36:01.996Z,100303.19
2023-03-06T15:38:44.281Z,100298.38
2023-03-06T15:41:20.730Z,100306.25
2023-03-06T15:43:42.441Z,100308.69
2023-03-06T15:46:07.646Z,100307.47
2023-03-06T15:48:29.361Z,100308.13
2023-03-06T15:50:51.095Z,100306.06
2023-03-06T15:53:12.733Z,100314.97
2023-03-06T15:55:34.418Z,100308.66
2023-03-06T15:58:02.052Z,100314.31
2023-03-06T16:00:32.404Z,100294.16
2023-03-06T16:02:58.536Z,100286.28
2023-03-06T16:05:21.682Z,100278.72
2023-03-06T16:07:43.829Z,100274.50
2023-03-06T16:10:05.777Z,100269.69
2023-03-06T16:12:30.733Z,100262.91
2023-03-06T16:14:52.498Z,100263.88
2023-03-06T16:17:15.580Z,100267.59
2023-03-06T16:19:37.186Z,100258.25
2023-03-06T16:21:59.232Z,100250.84
2023-03-06T16:24:21.027Z,100253.59
2023-03-06T16:26:47.112Z,100251.47
2023-03-06T16:29:17.766Z,100251.34
2023-03-06T16:31:39.424Z,100252.94
2023-03-06T16:34:01.065Z,100257.75
2023-03-06T16:36:27.156Z,100249.22
2023-03-06T16:38:50.292Z,100249.53
2023-03-06T16:41:11.931Z,100237.00
2023-03-06T16:43:33.658Z,100238.94
2023-03-06T16:45:55.644Z,100242.78
2023-03-06T16:48:17.387Z,100239.59
2023-03-06T16:50:40.545Z,100236.50
2023-03-06T16:53:02.273Z,100239.59
2023-03-06T16:55:26.860Z,100243.44
2023-03-06T16:57:49.096Z,100241.84
2023-03-06T17:00:12.115Z,100245.38
2023-03-06T17:02:33.977Z,100240.69
2023-03-06T17:04:55.839Z,100247.44
2023-03-06T17:07:17.443Z,100236.03
2023-03-06T17:09:39.085Z,100235.56
2023-03-06T17:12:00.701Z,100237.47
2023-03-06T17:14:22.316Z,100229.91
2023-03-06T17:16:44.001Z,100216.53
2023-03-06T17:19:06.887Z,100213.66
2023-03-06T17:21:30.150Z,100207.84
2023-03-06T17:23:51.844Z,100207.84
2023-03-06T17:26:18.820Z,100201.59
2023-03-06T17:28:41.891Z,100198.34
2023-03-06T17:31:17.226Z,100209.31
2023-03-06T17:33:39.044Z,100199.81
2023-03-06T17:36:01.172Z,100201.41
2023-03-06T17:38:22.872Z,100198.84
2023-03-06T17:40:44.554Z,100200.91
2023-03-06T17:43:06.139Z,100207.81
2023-03-06T17:45:29.496Z,100206.22
2023-03-06T17:47:54.414Z,100197.19
2023-03-06T17:50:16.303Z,100200.88
2023-03-06T17:52:38.968Z,100202.00
2023-03-06T17:55:00.705Z,100206.53
2023-03-06T17:57:22.309Z,100205.75
2023-03-06T17:59:48.461Z,100195.25
2023-03-06T18:02:11.260Z,100194.63
2023-03-06T18:04:32.857Z,100195.56
2023-03-06T18:06:54.666Z,100190.69
2023-03-06T18:09:16.400Z,100195.34
2023-03-06T18:11:39.170Z,100184.25
2023-03-06T18:14:00.741Z,100191.97
2023-03-06T18:16:25.960Z,100190.19
2023-03-06T18:18:47.794Z,100188.41
2023-03-06T18:21:13.553Z,100178.09
2023-03-06T18:23:36.535Z,100181.78
2023-03-06T18:26:15.673Z,100187.09
2023-03-06T18:28:44.655Z,100175.66
2023-03-06T18:31:14.165Z,100170.81
2023-03-06T18:33:35.826Z,100178.22
2023-03-06T18:36:02.865Z,100170.19
2023-03-06T18:38:24.494Z,100162.31
2023-03-06T18:40:46.211Z,100160.72
2023-03-06T18:43:07.967Z,100156.03
2023-03-06T18:45:29.688Z,100142.69
2023-03-06T18:47:51.350Z,100153.47
2023-03-06T18:50:17.421Z,100151.84
2023-03-06T18:52:39.137Z,100137.69
2023-03-06T18:55:00.836Z,100137.69
2023-03-06T18:57:22.577Z,100128.19
2023-03-06T18:59:44.347Z,100121.44
2023-03-06T19:02:06.773Z,100123.06
2023-03-06T19:04:28.538Z,100126.91
2023-03-06T19:06:51.372Z,100126.09
2023-03-06T19:09:13.007Z,100115.97
2023-03-06T19:11:34.979Z,100109.41
2023-03-06T19:13:56.666Z,100099.09
2023-03-06T19:16:25.590Z,100097.97
2023-03-06T19:18:47.590Z,100095.06
2023-03-06T19:21:14.893Z,100092.50
2023-03-06T19:23:37.058Z,100092.50
2023-03-06T19:26:00.424Z,100090.09
2023-03-06T19:28:22.124Z,100086.56
2023-03-06T19:30:43.726Z,100091.03
2023-03-06T19:33:05.331Z,100087.34
2023-03-06T19:35:27.600Z,100082.38
2023-03-06T19:37:49.605Z,100076.28
2023-03-06T19:40:12.756Z,100077.88
2023-03-06T19:42:34.440Z,100069.66
2023-03-06T19:44:56.121Z,100077.06
2023-03-06T19:47:17.747Z,100069.38
2023-03-06T19:49:40.613Z,100068.56
2023-03-06T19:52:02.371Z,100069.66
2023-03-06T19:54:25.515Z,100063.72
2023-03-06T19:56:47.204Z,100063.72
2023-03-06T19:59:08.840Z,100056.81
2023-03-06T20:01:30.862Z,100050.75
2023-03-06T20:03:59.055Z,100051.34
2023-03-06T20:06:22.282Z,100026.47
2023-03-06T20:08:45.900Z,100040.72
2023-03-06T20:11:22.278Z,100026.91
2023-03-06T20:13:47.302Z,100025.13
2023-03-06T20:16:09.289Z,100019.50
2023-03-06T20:18:31.070Z,100028.66
2023-03-06T20:21:03.835Z,100019.34
2023-03-06T20:23:26.306Z,100018.03
2023-03-06T20:25:47.952Z,100010.81
2023-03-06T20:28:09.570Z,100013.69
2023-03-06T20:30:37.724Z,100006.94
2023-03-06T20:32:59.981Z,100002.09
2023-03-06T20:35:22.726Z,100001.63
2023-03-06T20:37:44.546Z,99991.94
2023-03-06T20:40:08.348Z,99993.09
2023-03-06T20:42:30.157Z,99975.72
2023-03-06T20:44:51.791Z,99988.06
2023-03-06T20:47:13.514Z,99984.34
2023-03-06T20:49:36.552Z,99980.81
2023-03-06T20:51:58.247Z,99964.47
2023-03-06T20:54:20.078Z,99963.97
2023-03-06T20:56:46.903Z,99966.22
2023-03-06T20:59:12.155Z,99956.41
2023-03-06T21:01:41.557Z,99958.50
2023-03-06T21:04:06.786Z,99946.59
2023-03-06T21:06:29.343Z,99947.38
2023-03-06T21:08:51.316Z,99940.34
2023-03-06T21:11:13.569Z,99936.81
2023-03-06T21:13:35.288Z,99941.78
2023-03-06T21:15:56.985Z,99937.41
2023-03-06T21:18:18.917Z,99943.72
2023-03-06T21:20:42.248Z,99933.59
2023-03-06T21:23:04.322Z,99928.44
2023-03-06T21:25:25.970Z,99920.75
2023-03-06T21:27:47.796Z,99928.28
2023-03-06T21:30:10.512Z,99929.13
2023-03-06T21:32:33.147Z,99918.66
2023-03-06T21:34:54.846Z,99914.03
2023-03-06T21:37:16.523Z,99915.81
2023-03-06T21:39:38.533Z,99907.31
2023-03-06T21:42:00.281Z,99906.50
2023-03-06T21:44:22.482Z,99902.81
2023-03-06T21:46:44.090Z,99899.75
2023-03-06T21:49:05.836Z,99898.31
2023-03-06T21:51:27.560Z,99903.97
2023-03-06T21:53:50.266Z,99899.31
2023-03-06T21:56:14.460Z,99886.94
2023-03-06T21:58:36.562Z,99895.94
2023-03-06T22:00:58.483Z,99877.81
2023-03-06T22:03:21.108Z,99888.06
2023-03-06T22:05:43.291Z,99884.72
2023-03-06T22:08:05.018Z,99871.53
2023-03-06T22:10:26.710Z,99873.47
2023-03-06T22:12:48.492Z,99868.50
2023-03-06T22:15:10.506Z,99869.78
2023-03-06T22:17:32.864Z,99862.88
2023-03-06T22:19:54.590Z,99860.94
2023-03-06T22:22:16.260Z,99860.94
2023-03-06T22:24:38.042Z,99853.25
2023-03-06T22:26:59.778Z,99856.16
2023-03-06T22:29:21.440Z,99848.59
2023-03-06T22:31:43.187Z,99850.66
2023-03-06T22:34:04.949Z,99844.91
2023-03-06T22:36:30.633Z,99837.50
2023-03-06T22:39:00.119Z,99825.94
2023-03-06T22:41:22.501Z,99831.88
2023-03-06T22:43:44.288Z,99824.47
2023-03-06T22:46:15.474Z,99822.88
2023-03-06T22:48:37.414Z,99815.00
2023-03-06T22:51:14.606Z,99823.19
2023-03-06T22:53:37.540Z,99821.75
2023-03-06T22:56:02.054Z,99820.78
2023-03-06T22:58:23.604Z,99827.38
2023-03-06T23:00:47.332Z,99823.50
2023-03-06T23:03:08.964Z,99830.09
2023-03-06T23:05:30.639Z,99835.56
2023-03-06T23:07:52.286Z,99824.47
2023-03-06T23:10:13.898Z,99829.28
2023-03-06T23:12:54.265Z,99840.22
2023-03-06T23:15:35.773Z,99834.75
2023-03-06T23:18:15.801Z,99833.28
2023-03-06T23:20:56.238Z,99834.13
2023-03-06T23:23:39.048Z,99837.66
2023-03-06T23:26:01.451Z,99840.03
2023-03-06T23:28:23.137Z,99838.44
2023-03-06T23:30:44.962Z,99826.38
2023-03-06T23:33:07.066Z,99831.53
2023-03-06T23:35:28.791Z,99838.94
2023-03-06T23:37:50.446Z,99833.59
2023-03-06T23:40:13.711Z,99832.00
2023-03-06T23:42:35.416Z,99821.88
2023-03-06T23:44:57.066Z,99833.59
2023-03-06T23:47:20.053Z,99823.47
2023-03-06T23:49:41.778Z,99831.53
2023-03-06T23:52:04.391Z,99826.38
2023-03-06T23:54:26.064Z,99829.47
2023-03-06T23:56:47.671Z,99824.78
2023-03-06T23:59:11.374Z,99825.75
